Time;durP1;ratioP1;P1;durP2;ratioP2;P2;SDS_P1;SDS_P2;PMS_P1;PMS_P2;Temp;Humidity;BMP_temperature;BMP_pressure;BME280_temperature;BME280_humidity;BME280_pressure;Samples;Min_cycle;Max_cycle;Signal;HPM_P1;HPM_P2
2022/10/10 00:01:27;;;;;;;4.13;0.63;;;;;;;-142.37;100.00;59669.53;5071559;28;20033;-69
2022/10/10 00:03:53;;;;;;;6.75;1.05;;;;;;;-142.37;100.00;59669.53;5071330;28;20035;-69
2022/10/10 00:06:20;;;;;;;5.90;1.33;;;;;;;-142.37;100.00;59669.53;5072718;28;20036;-70
2022/10/10 00:08:46;;;;;;;4.55;0.93;;;;;;;-142.37;100.00;59669.53;5072733;28;20028;-68
2022/10/10 00:11:13;;;;;;;5.47;1.00;;;;;;;-142.37;100.00;59669.53;5071269;28;20424;-69
2022/10/10 00:13:39;;;;;;;6.50;0.98;;;;;;;-142.37;100.00;59669.53;5072370;28;20086;-67
2022/10/10 00:16:05;;;;;;;6.70;0.85;;;;;;;-142.37;100.00;59669.53;5071271;28;20024;-68
2022/10/10 00:18:31;;;;;;;5.32;1.15;;;;;;;-142.37;100.00;59669.53;5071118;28;20032;-70
2022/10/10 00:20:57;;;;;;;7.55;1.10;;;;;;;-142.37;100.00;59669.53;5070899;28;20020;-70
2022/10/10 00:23:23;;;;;;;9.15;1.25;;;;;;;-142.37;100.00;59669.53;5072336;28;20054;-68
2022/10/10 00:25:49;;;;;;;6.60;1.27;;;;;;;-142.37;100.00;59669.53;5070848;28;20503;-70
2022/10/10 00:28:15;;;;;;;6.90;0.88;;;;;;;-142.37;100.00;59669.53;5072528;28;20032;-69
2022/10/10 00:30:40;;;;;;;5.63;0.95;;;;;;;-142.37;100.00;59669.53;5071096;28;20025;-68
2022/10/10 00:33:06;;;;;;;9.77;1.67;;;;;;;-142.37;100.00;59669.53;5070869;28;20028;-69
2022/10/10 00:35:32;;;;;;;10.73;1.65;;;;;;;-142.37;100.00;59669.53;5071809;28;20032;-69
2022/10/10 00:37:57;;;;;;;6.53;1.05;;;;;;;-142.37;100.00;59669.53;5072495;28;20056;-68
2022/10/10 00:40:23;;;;;;;6.97;1.08;;;;;;;-142.37;100.00;59669.53;5070739;28;20033;-69
2022/10/10 00:42:49;;;;;;;8.63;1.20;;;;;;;-142.37;100.00;59669.53;5072020;28;20119;-68
2022/10/10 00:45:46;;;;;;;5.97;1.10;;;;;;;-142.37;100.00;59669.53;5070760;28;20035;-69
2022/10/10 00:48:19;;;;;;;8.23;1.67;;;;;;;-142.37;100.00;59669.53;5072000;28;20060;-70
2022/10/10 00:50:59;;;;;;;8.00;1.25;;;;;;;-142.37;100.00;59669.53;5072374;28;20450;-68
2022/10/10 00:53:29;;;;;;;9.55;1.38;;;;;;;-142.37;100.00;59669.53;5070937;28;20115;-69
2022/10/10 00:55:56;;;;;;;7.85;1.45;;;;;;;-142.37;100.00;59669.53;5081339;28;20055;-69
2022/10/10 00:58:23;;;;;;;6.78;1.35;;;;;;;-142.37;100.00;59669.53;5112848;28;20023;-69
2022/10/10 01:00:49;;;;;;;5.15;0.95;;;;;;;-142.37;100.00;59669.53;5094301;28;20114;-68
2022/10/10 01:03:14;;;;;;;8.93;0.90;;;;;;;-142.37;100.00;59669.53;5112401;28;20100;-68
2022/10/10 01:05:42;;;;;;;5.97;0.90;;;;;;;-142.37;100.00;59669.53;5093951;28;20499;-69
2022/10/10 01:08:09;;;;;;;8.30;1.15;;;;;;;-142.37;100.00;59669.53;5112629;28;20500;-70
2022/10/10 01:10:45;;;;;;;6.35;1.10;;;;;;;-142.37;100.00;59669.53;5112666;28;20031;-70
2022/10/10 01:13:27;;;;;;;8.63;1.38;;;;;;;-142.37;100.00;59669.53;5112308;28;20103;-70
2022/10/10 01:16:02;;;;;;;6.75;1.08;;;;;;;-142.37;100.00;59669.53;5094014;28;20035;-70
2022/10/10 01:18:56;;;;;;;6.25;1.40;;;;;;;-142.37;100.00;59669.53;5112633;28;20030;-69
2022/10/10 01:21:42;;;;;;;7.22;1.35;;;;;;;-142.37;100.00;59669.53;5093887;28;20032;-68
2022/10/10 01:24:19;;;;;;;9.13;1.15;;;;;;;-142.37;100.00;59669.53;5093835;28;20035;-68
2022/10/10 01:27:14;;;;;;;7.30;1.08;;;;;;;-142.37;100.00;59669.53;5093885;28;20515;-69
2022/10/10 01:29:56;;;;;;;2.45;0.52;;;;;;;-142.37;100.00;59669.53;5112189;28;20024;-69
2022/10/10 01:32:36;;;;;;;5.25;1.45;;;;;;;-142.37;100.00;59669.53;5093900;28;20067;-70
2022/10/10 01:35:17;;;;;;;7.40;1.80;;;;;;;-142.37;100.00;59669.53;5093750;28;20510;-69
2022/10/10 01:37:51;;;;;;;5.45;1.00;;;;;;;-142.37;100.00;59669.53;5094064;28;20110;-69
2022/10/10 01:40:23;;;;;;;5.55;1.13;;;;;;;-142.37;100.00;59669.53;5093957;28;20027;-69
2022/10/10 01:42:54;;;;;;;7.68;1.58;;;;;;;-142.37;100.00;59669.53;5112094;28;20073;-69
2022/10/10 01:45:21;;;;;;;8.02;1.05;;;;;;;-142.37;100.00;59669.53;5093527;28;20364;-69
2022/10/10 01:47:48;;;;;;;7.65;0.98;;;;;;;-142.37;100.00;59669.53;5096444;28;20403;-69
2022/10/10 01:50:19;;;;;;;7.57;1.13;;;;;;;-142.37;100.00;59669.53;5097733;28;20118;-69
2022/10/10 01:52:54;;;;;;;8.00;1.33;;;;;;;-142.37;100.00;59669.53;5097575;28;20027;-69
2022/10/10 01:55:49;;;;;;;6.75;2.17;;;;;;;-142.37;100.00;59669.53;5097506;28;20027;-68
2022/10/10 01:58:24;;;;;;;10.43;1.57;;;;;;;-142.37;100.00;59669.53;5092399;28;20047;-69
2022/10/10 02:01:08;;;;;;;5.32;1.50;;;;;;;-142.37;100.00;59669.53;5097527;28;20035;-69
2022/10/10 02:03:41;;;;;;;4.45;0.63;;;;;;;-142.37;100.00;59669.53;5097347;28;20046;-69
2022/10/10 02:06:25;;;;;;;9.35;1.20;;;;;;;-142.37;100.00;59669.53;5115418;28;20032;-69
2022/10/10 02:08:56;;;;;;;6.75;1.13;;;;;;;-142.37;100.00;59669.53;5097216;28;20023;-69
2022/10/10 02:11:25;;;;;;;6.18;0.80;;;;;;;-142.37;100.00;59669.53;5115589;28;20096;-68
2022/10/10 02:13:59;;;;;;;12.77;1.25;;;;;;;-142.37;100.00;59669.53;5115809;28;20059;-71
2022/10/10 02:16:32;;;;;;;5.57;0.83;;;;;;;-142.37;100.00;59669.53;5115315;28;20039;-70
2022/10/10 02:18:59;;;;;;;6.82;0.90;;;;;;;-142.37;100.00;59669.53;5115341;28;20145;-71
2022/10/10 02:21:25;;;;;;;4.88;0.75;;;;;;;-142.37;100.00;59669.53;5115473;28;20027;-68
2022/10/10 02:23:54;;;;;;;7.15;1.50;;;;;;;-142.37;100.00;59669.53;5115615;28;20023;-70
2022/10/10 02:26:22;;;;;;;5.72;0.80;;;;;;;-142.37;100.00;59669.53;5115071;28;20059;-70
2022/10/10 02:28:56;;;;;;;3.85;0.98;;;;;;;-142.37;100.00;59669.53;5096568;28;20085;-69
2022/10/10 02:31:49;;;;;;;8.13;1.25;;;;;;;-142.37;100.00;59669.53;5096847;28;20030;-69
2022/10/10 02:34:18;;;;;;;8.18;1.10;;;;;;;-142.37;100.00;59669.53;5096872;28;20031;-69
2022/10/10 02:36:53;;;;;;;6.82;0.68;;;;;;;-142.37;100.00;59669.53;5115417;28;20028;-69
2022/10/10 02:39:25;;;;;;;3.75;1.00;;;;;;;-142.37;100.00;59669.53;5114940;28;20019;-69
2022/10/10 02:41:52;;;;;;;4.53;0.60;;;;;;;-142.37;100.00;59669.53;5096619;28;20030;-69
2022/10/10 02:44:20;;;;;;;5.20;1.00;;;;;;;-142.37;100.00;59669.53;5096518;28;20024;-70
2022/10/10 02:46:45;;;;;;;6.05;1.13;;;;;;;-142.37;100.00;59669.53;5096573;28;20061;-70
2022/10/10 02:49:11;;;;;;;4.47;0.90;;;;;;;-142.37;100.00;59669.53;5096419;28;20055;-70
2022/10/10 02:51:38;;;;;;;6.15;1.27;;;;;;;-142.37;100.00;59669.53;5096465;28;20020;-69
2022/10/10 02:54:04;;;;;;;6.35;0.95;;;;;;;-142.37;100.00;59669.53;5096603;28;20472;-69
2022/10/10 02:56:30;;;;;;;10.68;1.33;;;;;;;-142.37;100.00;59669.53;5083309;28;20405;-68
2022/10/10 02:58:56;;;;;;;6.45;1.00;;;;;;;-142.37;100.00;59669.53;5073709;28;20020;-69
2022/10/10 03:01:22;;;;;;;8.73;1.13;;;;;;;-142.37;100.00;59669.53;5074065;28;20103;-69
2022/10/10 03:03:48;;;;;;;7.22;1.50;;;;;;;-142.37;100.00;59669.53;5073996;28;20157;-69
2022/10/10 03:06:14;;;;;;;6.70;1.10;;;;;;;-142.37;100.00;59669.53;5073907;28;20512;-69
2022/10/10 03:08:39;;;;;;;11.35;1.63;;;;;;;-142.37;100.00;59669.53;5073988;28;20461;-69
2022/10/10 03:11:05;;;;;;;11.00;1.27;;;;;;;-142.37;100.00;59669.53;5072405;28;20115;-70
2022/10/10 03:13:31;;;;;;;9.40;1.30;;;;;;;-142.37;100.00;59669.53;5072523;28;20043;-68
2022/10/10 03:15:57;;;;;;;5.38;1.15;;;;;;;-142.37;100.00;59669.53;5073922;28;20025;-69
2022/10/10 03:18:23;;;;;;;13.18;1.77;;;;;;;-142.37;100.00;59669.53;5073733;28;20029;-70
2022/10/10 03:20:51;;;;;;;5.80;1.42;;;;;;;-142.37;100.00;59669.53;5073647;28;20523;-70
2022/10/10 03:23:17;;;;;;;8.73;1.33;;;;;;;-142.37;100.00;59669.53;5073409;28;20037;-70
2022/10/10 03:25:43;;;;;;;14.43;1.92;;;;;;;-142.37;100.00;59669.53;5073582;28;20032;-69
2022/10/10 03:28:10;;;;;;;7.40;1.67;;;;;;;-142.37;100.00;59669.53;5072176;28;20055;-69
2022/10/10 03:30:37;;;;;;;8.05;1.67;;;;;;;-142.37;100.00;59669.53;5073572;28;20074;-69
2022/10/10 03:33:04;;;;;;;5.15;1.02;;;;;;;-142.37;100.00;59669.53;5071765;28;20105;-70
2022/10/10 03:35:29;;;;;;;7.15;1.60;;;;;;;-142.37;100.00;59669.53;5073398;28;20385;-70
2022/10/10 03:37:56;;;;;;;6.72;1.60;;;;;;;-142.37;100.00;59669.53;5072063;28;20024;-72
2022/10/10 03:40:22;;;;;;;7.82;1.40;;;;;;;-142.37;100.00;59669.53;5073396;28;20041;-70
2022/10/10 03:42:47;;;;;;;8.63;2.08;;;;;;;-142.37;100.00;59669.53;5073654;28;20493;-70
2022/10/10 03:45:13;;;;;;;20.27;2.20;;;;;;;-142.37;100.00;59669.53;5071587;28;20493;-70
2022/10/10 03:47:38;;;;;;;4.70;1.15;;;;;;;-142.37;100.00;59669.53;5072791;28;20036;-70
2022/10/10 03:50:05;;;;;;;14.05;2.25;;;;;;;-142.37;100.00;59669.53;5071547;28;20034;-70
2022/10/10 03:52:30;;;;;;;5.93;0.98;;;;;;;-142.37;100.00;59669.53;5073147;28;20035;-69
2022/10/10 03:54:56;;;;;;;8.98;1.38;;;;;;;-142.37;100.00;59669.53;5071241;28;20032;-70
2022/10/10 03:57:21;;;;;;;13.90;1.75;;;;;;;-142.37;100.00;59669.53;5105842;28;20516;-69
2022/10/10 03:59:47;;;;;;;7.95;1.05;;;;;;;-142.37;100.00;59669.53;5113230;28;20073;-70
2022/10/10 04:02:13;;;;;;;7.78;0.98;;;;;;;-142.37;100.00;59669.53;5094962;28;20027;-71
2022/10/10 04:04:38;;;;;;;12.20;1.90;;;;;;;-142.37;100.00;59669.53;5113094;28;20020;-70
2022/10/10 04:07:04;;;;;;;8.35;1.30;;;;;;;-142.37;100.00;59669.53;5112861;28;20084;-71
2022/10/10 04:09:30;;;;;;;6.07;1.25;;;;;;;-142.37;100.00;59669.53;5094504;28;20106;-70
2022/10/10 04:11:55;;;;;;;8.23;0.95;;;;;;;-142.37;100.00;59669.53;5113135;28;20425;-71
2022/10/10 04:14:21;;;;;;;5.32;1.25;;;;;;;-142.37;100.00;59669.53;5094681;28;20031;-71
2022/10/10 04:16:47;;;;;;;8.70;1.30;;;;;;;-142.37;100.00;59669.53;5094730;28;20058;-71
2022/10/10 04:19:13;;;;;;;5.80;1.20;;;;;;;-142.37;100.00;59669.53;5112658;28;20023;-70
2022/10/10 04:21:39;;;;;;;12.20;1.67;;;;;;;-142.37;100.00;59669.53;5094666;28;20035;-70
2022/10/10 04:24:05;;;;;;;8.18;1.40;;;;;;;-142.37;100.00;59669.53;5112895;28;20028;-71
2022/10/10 04:26:30;;;;;;;7.20;1.42;;;;;;;-142.37;100.00;59669.53;5112412;28;20059;-71
2022/10/10 04:28:56;;;;;;;6.78;1.58;;;;;;;-142.37;100.00;59669.53;5094051;28;20114;-70
2022/10/10 04:31:22;;;;;;;15.30;1.90;;;;;;;-142.37;100.00;59669.53;5112533;28;20032;-71
2022/10/10 04:33:48;;;;;;;8.10;2.10;;;;;;;-142.37;100.00;59669.53;5093916;28;20032;-71
2022/10/10 04:36:14;;;;;;;13.10;1.25;;;;;;;-142.37;100.00;59669.53;5094219;28;20039;-72
2022/10/10 04:38:40;;;;;;;9.55;1.50;;;;;;;-142.37;100.00;59669.53;5112312;28;20047;-71
2022/10/10 04:41:05;;;;;;;9.68;1.92;;;;;;;-142.37;100.00;59669.53;5093897;28;20033;-72
2022/10/10 04:43:31;;;;;;;10.68;1.63;;;;;;;-142.37;100.00;59669.53;5094121;28;20042;-71
2022/10/10 04:45:57;;;;;;;7.10;1.20;;;;;;;-142.37;100.00;59669.53;5112575;28;20035;-71
2022/10/10 04:48:23;;;;;;;3.80;1.05;;;;;;;-142.37;100.00;59669.53;5094079;28;20024;-71
2022/10/10 04:50:55;;;;;;;8.30;1.42;;;;;;;-142.37;100.00;59669.53;5094069;28;20032;-71
2022/10/10 04:53:21;;;;;;;11.13;1.50;;;;;;;-142.37;100.00;59669.53;5112724;28;20034;-71
2022/10/10 04:55:47;;;;;;;14.55;3.05;;;;;;;-142.37;100.00;59669.53;5111940;28;20043;-71
2022/10/10 04:58:13;;;;;;;12.40;1.85;;;;;;;-142.37;100.00;59669.53;5112015;28;20387;-71
2022/10/10 05:00:39;;;;;;;11.52;1.80;;;;;;;-142.37;100.00;59669.53;5093613;28;20124;-71
2022/10/10 05:03:05;;;;;;;10.05;2.17;;;;;;;-142.37;100.00;59669.53;5093394;28;20019;-71
2022/10/10 05:05:31;;;;;;;10.95;1.45;;;;;;;-142.37;100.00;59669.53;5093545;28;20050;-72
2022/10/10 05:07:56;;;;;;;11.50;1.60;;;;;;;-142.37;100.00;59669.53;5112143;28;20040;-72
2022/10/10 05:10:23;;;;;;;8.10;1.58;;;;;;;-142.37;100.00;59669.53;5111661;28;20096;-72
2022/10/10 05:12:50;;;;;;;21.88;2.58;;;;;;;-142.37;100.00;59669.53;5112717;28;20034;-72
2022/10/10 05:15:16;;;;;;;15.82;2.80;;;;;;;-142.37;100.00;59669.53;5115337;28;20055;-71
2022/10/10 05:17:42;;;;;;;7.57;1.63;;;;;;;-142.37;100.00;59669.53;5097066;28;20034;-72
2022/10/10 05:20:08;;;;;;;9.15;1.65;;;;;;;-142.37;100.00;59669.53;5112808;28;20027;-73
2022/10/10 05:22:34;;;;;;;11.35;1.95;;;;;;;-142.37;100.00;59669.53;5115522;28;20050;-72
2022/10/10 05:25:00;;;;;;;11.23;1.30;;;;;;;-142.37;100.00;59669.53;5096943;28;20491;-73
2022/10/10 05:27:26;;;;;;;8.70;1.65;;;;;;;-142.37;100.00;59669.53;5097288;28;20161;-71
2022/10/10 05:29:52;;;;;;;6.43;1.27;;;;;;;-142.37;100.00;59669.53;5114982;28;20345;-72
2022/10/10 05:32:18;;;;;;;10.43;1.52;;;;;;;-142.37;100.00;59669.53;5115390;28;20034;-73
2022/10/10 05:34:43;;;;;;;6.60;1.33;;;;;;;-142.37;100.00;59669.53;5116140;28;20502;-74
2022/10/10 05:37:10;;;;;;;7.78;1.90;;;;;;;-142.37;100.00;59669.53;5096813;28;20510;-71
2022/10/10 05:39:35;;;;;;;9.23;1.98;;;;;;;-142.37;100.00;59669.53;5115138;28;20070;-73
2022/10/10 05:42:01;;;;;;;11.10;2.03;;;;;;;-142.37;100.00;59669.53;5097310;28;20051;-73
2022/10/10 05:44:27;;;;;;;11.80;1.67;;;;;;;-142.37;100.00;59669.53;5096741;28;20031;-72
2022/10/10 05:46:53;;;;;;;12.63;1.83;;;;;;;-142.37;100.00;59669.53;5114795;28;20440;-73
2022/10/10 05:49:18;;;;;;;11.65;1.98;;;;;;;-142.37;100.00;59669.53;5114854;28;20039;-73
2022/10/10 05:51:44;;;;;;;9.25;1.75;;;;;;;-142.37;100.00;59669.53;5096275;28;20028;-74
2022/10/10 05:54:09;;;;;;;11.48;1.48;;;;;;;-142.37;100.00;59669.53;5095228;28;20066;-73
2022/10/10 05:56:35;;;;;;;10.27;2.00;;;;;;;-142.37;100.00;59669.53;5096137;28;20044;-73
2022/10/10 05:59:02;;;;;;;12.25;2.63;;;;;;;-142.37;100.00;59669.53;5114010;28;20495;-72
2022/10/10 06:01:28;;;;;;;12.30;1.63;;;;;;;-142.37;100.00;59669.53;5113977;28;20100;-73
2022/10/10 06:03:54;;;;;;;9.63;1.88;;;;;;;-142.37;100.00;59669.53;5095602;28;20457;-74
2022/10/10 06:06:24;;;;;;;9.95;1.50;;;;;;;-142.37;100.00;59669.53;5114162;28;20052;-72
2022/10/10 06:08:50;;;;;;;6.43;1.20;;;;;;;-142.37;100.00;59669.53;5095734;28;20034;-72
2022/10/10 06:11:18;;;;;;;8.75;1.60;;;;;;;-142.37;100.00;59669.53;5095796;28;20479;-73
2022/10/10 06:13:44;;;;;;;10.10;1.65;;;;;;;-142.37;100.00;59669.53;5095774;28;20027;-71
2022/10/10 06:16:10;;;;;;;13.10;2.25;;;;;;;-142.37;100.00;59669.53;5096091;28;20472;-72
2022/10/10 06:18:36;;;;;;;12.75;1.45;;;;;;;-142.37;100.00;59669.53;5114129;28;20540;-72
2022/10/10 06:21:05;;;;;;;8.48;1.77;;;;;;;-142.37;100.00;59669.53;5094774;28;20027;-73
2022/10/10 06:23:32;;;;;;;8.38;1.40;;;;;;;-142.37;100.00;59669.53;5095213;28;20032;-72
2022/10/10 06:25:58;;;;;;;6.20;1.30;;;;;;;-142.37;100.00;59669.53;5095036;28;20390;-73
2022/10/10 06:28:24;;;;;;;10.52;2.58;;;;;;;-142.37;100.00;59669.53;5095669;28;20020;-73
2022/10/10 06:30:50;;;;;;;9.82;2.08;;;;;;;-142.37;100.00;59669.53;5113756;28;20038;-71
2022/10/10 06:33:18;;;;;;;11.25;1.27;;;;;;;-142.37;100.00;59669.53;5095182;28;20027;-72
2022/10/10 06:35:46;;;;;;;6.25;1.08;;;;;;;-142.37;100.00;59669.53;5095404;28;20020;-71
2022/10/10 06:38:13;;;;;;;10.93;2.17;;;;;;;-142.37;100.00;59669.53;5114138;28;20053;-72
2022/10/10 06:40:40;;;;;;;13.55;2.10;;;;;;;-142.37;100.00;59669.53;5113885;28;20041;-72
2022/10/10 06:43:10;;;;;;;11.10;1.92;;;;;;;-142.37;100.00;59669.53;5095129;28;20114;-73
2022/10/10 06:45:37;;;;;;;9.57;2.15;;;;;;;-142.37;100.00;59669.53;5094986;28;20040;-72
2022/10/10 06:48:03;;;;;;;11.35;1.65;;;;;;;-142.37;100.00;59669.53;5113860;28;20536;-72
2022/10/10 06:50:29;;;;;;;12.88;2.70;;;;;;;-142.37;100.00;59669.53;5113414;28;20027;-73
2022/10/10 06:52:55;;;;;;;9.13;1.48;;;;;;;-142.37;100.00;59669.53;5113856;28;20102;-72
2022/10/10 06:55:20;;;;;;;9.13;1.90;;;;;;;-142.37;100.00;59669.53;5094738;28;20040;-73
2022/10/10 06:57:46;;;;;;;17.35;8.88;;;;;;;-142.37;100.00;59669.53;5113636;28;20051;-72
2022/10/10 07:00:12;;;;;;;10.88;1.55;;;;;;;-142.37;100.00;59669.53;5113975;28;20036;-73
2022/10/10 07:02:39;;;;;;;4.07;1.23;;;;;;;-142.37;100.00;59669.53;5114735;28;20030;-73
2022/10/10 07:05:08;;;;;;;10.15;1.50;;;;;;;-142.37;100.00;59669.53;5113195;28;20020;-72
2022/10/10 07:07:34;;;;;;;9.15;1.77;;;;;;;-142.37;100.00;59669.53;5095348;28;20027;-72
2022/10/10 07:10:00;;;;;;;8.98;2.05;;;;;;;-142.37;100.00;59669.53;5114042;28;20069;-72
2022/10/10 07:12:26;;;;;;;5.45;1.20;;;;;;;-142.37;100.00;59669.53;5113095;28;20102;-72
2022/10/10 07:14:52;;;;;;;6.82;1.55;;;;;;;-142.37;100.00;59669.53;5113525;28;20035;-72
2022/10/10 07:17:18;;;;;;;6.13;1.45;;;;;;;-142.37;100.00;59669.53;5113164;28;20053;-72
2022/10/10 07:19:43;;;;;;;6.22;1.67;;;;;;;-142.37;100.00;59669.53;5095090;28;20023;-71
2022/10/10 07:22:09;;;;;;;6.68;1.83;;;;;;;-142.37;100.00;59669.53;5094650;28;20477;-72
2022/10/10 07:24:35;;;;;;;9.85;1.30;;;;;;;-142.37;100.00;59669.53;5113367;28;20040;-72
2022/10/10 07:27:02;;;;;;;5.22;2.03;;;;;;;-142.37;100.00;59669.53;5094933;28;20024;-72
2022/10/10 07:29:29;;;;;;;10.45;3.63;;;;;;;-142.37;100.00;59669.53;5095623;28;20038;-72
2022/10/10 07:31:55;;;;;;;5.65;2.25;;;;;;;-142.37;100.00;59669.53;5095077;28;20134;-73
2022/10/10 07:34:21;;;;;;;10.52;1.70;;;;;;;-142.37;100.00;59669.53;5094749;28;20440;-72
2022/10/10 07:36:49;;;;;;;3.90;1.48;;;;;;;-142.37;100.00;59669.53;5095268;28;20058;-72
2022/10/10 07:39:24;;;;;;;10.52;1.98;;;;;;;-142.37;100.00;59669.53;5113045;28;20468;-72
2022/10/10 07:41:51;;;;;;;11.02;1.52;;;;;;;-142.37;100.00;59669.53;5113447;28;20032;-70
2022/10/10 07:44:18;;;;;;;7.93;1.77;;;;;;;-142.37;100.00;59669.53;5112026;28;20062;-71
2022/10/10 07:46:44;;;;;;;8.00;1.92;;;;;;;-142.37;100.00;59669.53;5112873;28;20114;-72
2022/10/10 07:49:10;;;;;;;12.55;1.50;;;;;;;-142.37;100.00;59669.53;5112924;28;20098;-70
2022/10/10 07:51:36;;;;;;;5.95;1.27;;;;;;;-142.37;100.00;59669.53;5113548;28;20034;-72
2022/10/10 07:54:03;;;;;;;9.68;1.65;;;;;;;-142.37;100.00;59669.53;5112515;28;20023;-70
2022/10/10 07:56:28;;;;;;;7.15;1.55;;;;;;;-142.37;100.00;59669.53;5112774;28;20047;-72
2022/10/10 07:58:54;;;;;;;6.68;1.40;;;;;;;-142.37;100.00;59669.53;5112656;28;20482;-71
2022/10/10 08:01:20;;;;;;;9.18;2.33;;;;;;;-142.37;100.00;59669.53;5113092;28;20072;-71
2022/10/10 08:03:45;;;;;;;5.50;1.58;;;;;;;-142.37;100.00;59669.53;5112379;28;20055;-71
2022/10/10 08:06:15;;;;;;;6.93;1.52;;;;;;;-142.37;100.00;59669.53;5112602;28;20030;-69
2022/10/10 08:08:43;;;;;;;6.10;1.35;;;;;;;-142.37;100.00;59669.53;5112621;28;20097;-67
2022/10/10 08:11:09;;;;;;;5.63;2.20;;;;;;;-142.37;100.00;59669.53;5112705;28;20031;-67
2022/10/10 08:13:36;;;;;;;5.93;1.23;;;;;;;-142.37;100.00;59669.53;5094301;28;20020;-67
2022/10/10 08:16:03;;;;;;;7.45;1.63;;;;;;;-142.37;100.00;59669.53;5112414;28;20027;-66
2022/10/10 08:18:29;;;;;;;11.00;1.40;;;;;;;-142.37;100.00;59669.53;5112171;28;20024;-67
2022/10/10 08:21:04;;;;;;;10.15;2.30;;;;;;;-142.37;100.00;59669.53;5111992;28;20075;-67
2022/10/10 08:23:30;;;;;;;5.90;1.90;;;;;;;-142.37;100.00;59669.53;5093920;28;20047;-67
2022/10/10 08:26:00;;;;;;;5.97;1.40;;;;;;;-142.37;100.00;59669.53;5112175;28;20035;-67
2022/10/10 08:28:27;;;;;;;6.50;2.05;;;;;;;-142.37;100.00;59669.53;5112411;28;20031;-67
2022/10/10 08:30:53;;;;;;;7.10;1.35;;;;;;;-142.37;100.00;59669.53;5112366;28;20055;-67
2022/10/10 08:33:19;;;;;;;5.60;1.25;;;;;;;-142.37;100.00;59669.53;5092772;28;20031;-68
2022/10/10 08:35:45;;;;;;;5.90;2.03;;;;;;;-142.37;100.00;59669.53;5093667;28;20191;-66
2022/10/10 08:38:13;;;;;;;7.70;1.55;;;;;;;-142.37;100.00;59669.53;5093935;28;20114;-67
2022/10/10 08:40:45;;;;;;;14.27;1.65;;;;;;;-142.37;100.00;59669.53;5111970;28;20379;-69
2022/10/10 08:43:21;;;;;;;5.65;1.00;;;;;;;-142.37;100.00;59669.53;5092603;28;20035;-69
2022/10/10 08:45:49;;;;;;;5.57;1.42;;;;;;;-142.37;100.00;59669.53;5093225;28;20046;-69
2022/10/10 08:48:22;;;;;;;10.93;4.03;;;;;;;-142.37;100.00;59669.53;5093823;28;20500;-66
2022/10/10 08:50:52;;;;;;;7.32;1.67;;;;;;;-142.37;100.00;59669.53;5112148;28;20035;-66
2022/10/10 08:53:27;;;;;;;7.93;1.40;;;;;;;-142.37;100.00;59669.53;5111004;28;20036;-66
2022/10/10 08:55:54;;;;;;;5.95;1.83;;;;;;;-142.37;100.00;59669.53;5084971;28;20150;-65
2022/10/10 08:58:57;;;;;;;6.63;1.60;;;;;;;-142.37;100.00;59669.53;5071007;28;20481;-66
2022/10/10 09:01:30;;;;;;;5.65;1.35;;;;;;;-142.37;100.00;59669.53;5052330;28;20052;-66
2022/10/10 09:04:01;;;;;;;8.48;1.65;;;;;;;-142.37;100.00;59669.53;5071443;28;20162;-65
2022/10/10 09:06:51;;;;;;;5.57;1.40;;;;;;;-142.37;100.00;59669.53;5070748;28;20028;-65
2022/10/10 09:09:40;;;;;;;7.18;1.45;;;;;;;-142.37;100.00;59669.53;5069405;28;20473;-67
2022/10/10 09:12:26;;;;;;;3.35;1.10;;;;;;;-142.37;100.00;59669.53;5069527;28;20032;-69
2022/10/10 09:15:03;;;;;;;9.15;1.50;;;;;;;-142.37;100.00;59669.53;5069526;28;20032;-66
2022/10/10 09:17:38;;;;;;;7.03;1.35;;;;;;;-142.37;100.00;59669.53;5071569;28;20037;-66
2022/10/10 09:20:31;;;;;;;9.43;1.42;;;;;;;-142.37;100.00;59669.53;5070910;28;20024;-65
2022/10/10 09:23:17;;;;;;;4.32;1.75;;;;;;;-142.37;100.00;59669.53;5069289;28;20047;-68
2022/10/10 09:25:48;;;;;;;5.82;1.38;;;;;;;-142.37;100.00;59669.53;5069584;28;20032;-65
2022/10/10 09:28:32;;;;;;;8.52;1.92;;;;;;;-142.37;100.00;59669.53;5069380;28;20032;-65
2022/10/10 09:31:00;;;;;;;5.93;1.40;;;;;;;-142.37;100.00;59669.53;5068939;28;20082;-65
2022/10/10 09:33:35;;;;;;;5.63;1.95;;;;;;;-142.37;100.00;59669.53;5069471;28;20024;-67
2022/10/10 09:36:07;;;;;;;6.88;1.50;;;;;;;-142.37;100.00;59669.53;5070749;28;20027;-68
2022/10/10 09:38:40;;;;;;;8.02;2.60;;;;;;;-142.37;100.00;59669.53;5069694;28;20170;-65
2022/10/10 09:41:11;;;;;;;6.55;1.63;;;;;;;-142.37;100.00;59669.53;5070512;28;20029;-64
2022/10/10 09:43:38;;;;;;;3.80;1.40;;;;;;;-142.37;100.00;59669.53;5068949;28;20466;-65
2022/10/10 09:46:05;;;;;;;5.45;1.65;;;;;;;-142.37;100.00;59669.53;5069306;28;20394;-65
2022/10/10 09:48:34;;;;;;;6.05;1.35;;;;;;;-142.37;100.00;59669.53;5068883;28;20032;-65
2022/10/10 09:51:03;;;;;;;10.65;5.53;;;;;;;-142.37;100.00;59669.53;5069289;28;20441;-64
2022/10/10 09:53:29;;;;;;;7.35;1.30;;;;;;;-142.37;100.00;59669.53;5070548;28;20056;-66
2022/10/10 09:55:55;;;;;;;6.55;1.80;;;;;;;-142.37;100.00;59669.53;5079840;28;20527;-64
2022/10/10 09:58:42;;;;;;;6.63;1.40;;;;;;;-142.37;100.00;59669.53;5110989;28;20052;-65
2022/10/10 10:01:27;;;;;;;9.38;2.15;;;;;;;-142.37;100.00;59669.53;5091990;28;20027;-66
2022/10/10 10:04:14;;;;;;;6.68;1.42;;;;;;;-142.37;100.00;59669.53;5112104;28;20113;-65
2022/10/10 10:06:46;;;;;;;5.18;1.48;;;;;;;-142.37;100.00;59669.53;5092902;28;20502;-66
2022/10/10 10:09:30;;;;;;;4.78;1.20;;;;;;;-142.37;100.00;59669.53;5095524;28;20119;-65
2022/10/10 10:11:56;;;;;;;8.60;1.47;;;;;;;-142.37;100.00;59669.53;5096502;28;20035;-66
2022/10/10 10:14:30;;;;;;;6.63;1.27;;;;;;;-142.37;100.00;59669.53;5115515;28;20260;-67
2022/10/10 10:17:12;;;;;;;5.63;1.48;;;;;;;-142.37;100.00;59669.53;5095949;28;20429;-67
2022/10/10 10:19:42;;;;;;;9.02;1.52;;;;;;;-142.37;100.00;59669.53;5114061;28;20202;-65
2022/10/10 10:22:39;;;;;;;5.47;1.45;;;;;;;-142.37;100.00;59669.53;5096320;28;20445;-64
2022/10/10 10:25:31;;;;;;;5.70;1.63;;;;;;;-142.37;100.00;59669.53;5095737;28;20036;-65
2022/10/10 10:28:20;;;;;;;4.90;1.58;;;;;;;-142.37;100.00;59669.53;5095829;28;20579;-64
2022/10/10 10:30:47;;;;;;;6.63;1.70;;;;;;;-142.37;100.00;59669.53;5114371;28;20034;-64
2022/10/10 10:33:46;;;;;;;4.25;1.00;;;;;;;-142.37;100.00;59669.53;5113550;28;20024;-65
2022/10/10 10:36:38;;;;;;;5.18;1.25;;;;;;;-142.37;100.00;59669.53;5114120;28;20032;-65
2022/10/10 10:39:22;;;;;;;9.00;1.58;;;;;;;-142.37;100.00;59669.53;5095875;28;20031;-64
2022/10/10 10:41:50;;;;;;;6.90;1.60;;;;;;;-142.37;100.00;59669.53;5095778;28;20088;-66
2022/10/10 10:44:47;;;;;;;7.05;1.27;;;;;;;-142.37;100.00;59669.53;5094970;28;20411;-64
2022/10/10 10:47:41;;;;;;;7.90;1.42;;;;;;;-142.37;100.00;59669.53;5113822;28;20475;-65
2022/10/10 10:50:12;;;;;;;10.27;2.05;;;;;;;-142.37;100.00;59669.53;5095433;28;20055;-63
2022/10/10 10:52:47;;;;;;;6.15;1.73;;;;;;;-142.37;100.00;59669.53;5095151;28;20086;-64
2022/10/10 10:55:26;;;;;;;6.57;2.08;;;;;;;-142.37;100.00;59669.53;5094550;28;20035;-64
2022/10/10 10:57:55;;;;;;;8.27;1.45;;;;;;;-142.37;100.00;59669.53;5095783;28;20055;-63
2022/10/10 11:00:20;;;;;;;7.78;2.03;;;;;;;-142.37;100.00;59669.53;5095310;28;20031;-64
2022/10/10 11:02:58;;;;;;;7.07;1.88;;;;;;;-142.37;100.00;59669.53;5113773;28;20087;-65
2022/10/10 11:05:48;;;;;;;8.13;1.80;;;;;;;-142.37;100.00;59669.53;5114131;28;20036;-64
2022/10/10 11:08:43;;;;;;;6.85;1.83;;;;;;;-142.37;100.00;59669.53;5094635;28;20032;-64
2022/10/10 11:11:57;;;;;;;5.05;1.38;;;;;;;-142.37;100.00;59669.53;5073320;28;20039;-64
2022/10/10 11:14:46;;;;;;;6.78;1.10;;;;;;;-142.37;100.00;59669.53;5057925;28;20045;-64
2022/10/10 11:17:33;;;;;;;4.95;1.33;;;;;;;-142.37;100.00;59669.53;5114002;28;20027;-64
2022/10/10 11:20:31;;;;;;;5.20;1.45;;;;;;;-142.37;100.00;59669.53;5113113;28;20396;-64
2022/10/10 11:23:08;;;;;;;9.80;1.98;;;;;;;-142.37;100.00;59669.53;5113747;28;20036;-66